Time;durP1;ratioP1;P1;durP2;ratioP2;P2;SDS_P1;SDS_P2;PMS_P1;PMS_P2;Temp;Humidity;BMP_temperature;BMP_pressure;BME280_temperature;BME280_humidity;BME280_pressure;Samples;Min_cycle;Max_cycle;Signal;HPM_P1;HPM_P2
2023/10/16 00:01:38;;;;;;;6.67;5.93;;;5.50;99.90;;;;;;5030491;28;20551;-78
2023/10/16 00:04:21;;;;;;;7.27;6.37;;;5.40;99.90;;;;;;5016701;28;20530;-79
2023/10/16 00:07:06;;;;;;;5.43;5.03;;;5.30;99.90;;;;;;5030597;28;21057;-78
2023/10/16 00:10:11;;;;;;;7.07;6.47;;;5.40;99.90;;;;;;5030042;28;20474;-79
2023/10/16 00:13:11;;;;;;;6.40;5.90;;;5.30;99.90;;;;;;5036723;28;20490;-80
2023/10/16 00:16:08;;;;;;;5.73;5.17;;;5.30;99.90;;;;;;5039842;28;20460;-82
2023/10/16 00:19:16;;;;;;;6.40;5.80;;;5.30;99.90;;;;;;5039650;28;20448;-78
2023/10/16 00:22:18;;;;;;;6.43;5.90;;;5.30;99.90;;;;;;5039603;28;20501;-78
2023/10/16 00:25:10;;;;;;;6.43;5.80;;;5.30;99.90;;;;;;5038789;28;20482;-78
2023/10/16 00:27:46;;;;;;;5.97;5.37;;;5.20;99.90;;;;;;5039806;28;20479;-79
2023/10/16 00:30:43;;;;;;;6.30;5.80;;;5.40;99.90;;;;;;5037945;28;20483;-79
2023/10/16 00:33:27;;;;;;;6.47;5.87;;;5.10;99.90;;;;;;5034950;28;20446;-79
2023/10/16 00:36:03;;;;;;;6.80;6.23;;;5.10;99.90;;;;;;5029655;28;20506;-78
2023/10/16 00:38:51;;;;;;;7.60;5.50;;;5.10;99.90;;;;;;5029788;28;20450;-78
2023/10/16 00:41:35;;;;;;;6.60;5.87;;;5.00;99.90;;;;;;5029776;28;20452;-78
2023/10/16 00:44:18;;;;;;;6.80;6.13;;;4.90;99.90;;;;;;5030297;28;20501;-78
2023/10/16 00:53:27;;;;;;;6.87;6.17;;;5.20;99.90;;;;;;5029957;28;20497;-79
2023/10/16 00:56:13;;;;;;;6.37;5.77;;;4.60;99.90;;;;;;5030338;28;20436;-78
2023/10/16 00:59:16;;;;;;;6.47;5.97;;;4.90;99.90;;;;;;5031101;28;20522;-78
2023/10/16 01:02:04;;;;;;;6.33;5.73;;;4.90;99.90;;;;;;5019150;28;20455;-78
2023/10/16 01:04:50;;;;;;;7.20;6.50;;;5.10;99.90;;;;;;5026966;28;20441;-77
2023/10/16 01:14:26;;;;;;;7.03;6.53;;;4.80;99.90;;;;;;5022133;28;20446;-78
2023/10/16 01:17:41;;;;;;;6.50;6.00;;;4.80;99.90;;;;;;5020297;28;20836;-78
2023/10/16 01:24:12;;;;;;;5.67;5.10;;;4.80;99.90;;;;;;5012139;28;20435;-78
2023/10/16 01:30:11;;;;;;;6.70;6.07;;;4.70;99.90;;;;;;5022396;28;20857;-77
2023/10/16 01:32:47;;;;;;;6.20;5.60;;;4.70;99.90;;;;;;5023669;28;20452;-79
2023/10/16 01:35:57;;;;;;;6.50;6.00;;;4.60;99.90;;;;;;5023585;28;20462;-78
2023/10/16 01:42:29;;;;;;;6.87;6.20;;;4.60;99.90;;;;;;4952431;29;20626;-78
2023/10/16 01:45:30;;;;;;;6.23;5.67;;;4.60;99.90;;;;;;4964947;28;20455;-80
2023/10/16 01:51:27;;;;;;;6.40;5.80;;;4.50;99.90;;;;;;5026668;28;20827;-79
2023/10/16 01:54:37;;;;;;;6.07;5.57;;;4.60;99.90;;;;;;5026944;28;20451;-77
2023/10/16 01:57:45;;;;;;;7.87;6.07;;;4.50;99.90;;;;;;5003285;28;20533;-78
2023/10/16 02:00:34;;;;;;;9.57;6.30;;;4.50;99.90;;;;;;5023635;28;20446;-77
2023/10/16 02:03:09;;;;;;;7.60;6.63;;;4.40;99.90;;;;;;5024451;28;20511;-78
2023/10/16 02:05:50;;;;;;;7.97;6.40;;;4.40;99.90;;;;;;5024634;28;20501;-78
2023/10/16 02:08:36;;;;;;;7.77;6.97;;;4.40;99.90;;;;;;5023874;28;20447;-78
2023/10/16 02:11:19;;;;;;;9.30;6.53;;;4.40;99.90;;;;;;5021544;28;20506;-77
2023/10/16 02:14:10;;;;;;;6.93;6.33;;;4.40;99.90;;;;;;5019436;28;20459;-78
2023/10/16 02:17:04;;;;;;;6.73;6.13;;;4.30;99.90;;;;;;5017178;28;20580;-78
2023/10/16 02:20:14;;;;;;;7.90;6.40;;;4.30;99.90;;;;;;5017204;28;20463;-79
2023/10/16 02:23:11;;;;;;;8.40;7.60;;;4.30;99.90;;;;;;5014906;28;20507;-78
2023/10/16 02:26:06;;;;;;;6.80;6.10;;;4.30;99.90;;;;;;5016915;28;20456;-78
2023/10/16 02:28:53;;;;;;;;;;;;;;;;;;;;;
2023/10/16 02:32:03;;;;;;;7.70;6.73;;;4.30;99.90;;;;;;5016567;28;20440;-79
2023/10/16 02:35:00;;;;;;;7.97;7.17;;;4.30;99.90;;;;;;4988209;28;20470;-77
2023/10/16 02:44:12;;;;;;;;;;;;;;;;;;;;;
2023/10/16 02:50:14;;;;;;;7.83;7.13;;;4.20;99.90;;;;;;5010944;28;20487;-77
2023/10/16 02:52:51;;;;;;;7.53;6.70;;;4.10;99.90;;;;;;5015206;28;20490;-78
2023/10/16 02:58:54;;;;;;;9.87;7.53;;;4.10;99.90;;;;;;5013648;28;20474;-78
2023/10/16 03:01:40;;;;;;;7.27;6.50;;;4.20;99.90;;;;;;5014274;28;20451;-78
2023/10/16 03:04:24;;;;;;;7.97;7.27;;;4.10;99.90;;;;;;5014730;28;20443;-77
2023/10/16 03:07:10;;;;;;;11.83;7.80;;;4.10;99.90;;;;;;5014587;28;20475;-79
2023/10/16 03:10:08;;;;;;;8.60;6.73;;;4.10;99.90;;;;;;5016160;28;20474;-78
2023/10/16 03:13:05;;;;;;;;;;;;;;;;;;;;;
2023/10/16 03:16:22;;;;;;;7.70;7.00;;;4.10;99.90;;;;;;5015643;28;20503;-79
2023/10/16 03:19:21;;;;;;;8.00;7.00;;;3.90;99.90;;;;;;5014842;28;20513;-77
2023/10/16 03:24:59;;;;;;;8.20;7.40;;;3.90;99.90;;;;;;5010322;28;20435;-79
2023/10/16 03:27:44;;;;;;;7.83;7.07;;;3.90;99.90;;;;;;5014455;28;20471;-78
2023/10/16 03:30:29;;;;;;;;;;;;;;;;;;;;;
2023/10/16 03:33:27;;;;;;;8.07;7.37;;;3.60;99.90;;;;;;5013881;28;20438;-78
2023/10/16 03:39:56;;;;;;;7.70;7.00;;;3.50;99.90;;;;;;5010818;28;20459;-77
2023/10/16 03:43:04;;;;;;;8.33;7.43;;;3.80;99.90;;;;;;5013558;28;20466;-79
2023/10/16 03:46:12;;;;;;;7.70;6.90;;;3.80;99.90;;;;;;5014354;28;20451;-79
2023/10/16 03:48:45;;;;;;;6.80;6.13;;;3.70;99.90;;;;;;5006237;28;20505;-78
2023/10/16 03:57:20;;;;;;;7.60;6.63;;;3.70;99.90;;;;;;5010147;28;20574;-78
2023/10/16 04:00:03;;;;;;;7.30;6.60;;;4.00;99.90;;;;;;5013246;28;20448;-79
2023/10/16 04:02:41;;;;;;;7.87;7.17;;;3.70;99.90;;;;;;5014469;28;20464;-78
2023/10/16 04:05:29;;;;;;;9.27;8.00;;;3.40;99.90;;;;;;5014660;28;20550;-78
2023/10/16 04:08:36;;;;;;;14.63;12.87;;;3.80;99.90;;;;;;5014550;28;20806;-78
2023/10/16 04:11:47;;;;;;;8.17;7.40;;;3.60;99.90;;;;;;5017341;28;20578;-78
2023/10/16 04:14:44;;;;;;;7.50;6.67;;;3.70;99.90;;;;;;5016104;28;20451;-78
2023/10/16 04:17:38;;;;;;;7.43;6.73;;;3.70;99.90;;;;;;5017074;28;20471;-79
2023/10/16 04:20:43;;;;;;;7.80;6.80;;;3.60;99.90;;;;;;5017633;28;20501;-77
2023/10/16 04:23:37;;;;;;;7.57;6.87;;;3.50;99.90;;;;;;5016603;28;20451;-77
2023/10/16 04:32:20;;;;;;;7.60;7.00;;;3.50;99.90;;;;;;4972616;28;20437;-78
2023/10/16 04:38:53;;;;;;;8.10;7.30;;;3.50;99.90;;;;;;4933970;28;20461;-79
2023/10/16 04:47:17;;;;;;;8.83;6.87;;;3.40;99.90;;;;;;4980240;28;20496;-79
2023/10/16 04:50:06;;;;;;;8.03;6.80;;;3.40;99.90;;;;;;5017107;28;21000;-78
2023/10/16 04:56:57;;;;;;;7.50;6.80;;;3.40;99.90;;;;;;4986242;28;20512;-78
2023/10/16 04:59:58;;;;;;;11.80;9.03;;;3.40;99.90;;;;;;5016417;28;20431;-78
2023/10/16 05:02:52;;;;;;;15.20;10.50;;;3.40;99.90;;;;;;5016124;28;20455;-78
2023/10/16 05:08:59;;;;;;;8.10;7.30;;;3.10;99.90;;;;;;5007772;28;20517;-79
2023/10/16 05:11:42;;;;;;;8.10;7.40;;;3.30;99.90;;;;;;5018763;28;20475;-78
2023/10/16 05:15:20;;;;;;;8.57;7.67;;;3.30;99.90;;;;;;5018288;28;20460;-78
2023/10/16 05:18:11;;;;;;;8.63;7.60;;;3.30;99.90;;;;;;5020386;28;20490;-79
2023/10/16 06:21:36;;;;;;;12.10;9.17;;;3.30;99.90;;;;;;5021158;28;20940;-81
2023/10/16 06:24:28;;;;;;;9.50;8.47;;;3.70;99.90;;;;;;5022636;28;20485;-77
2023/10/16 06:27:12;;;;;;;10.80;8.40;;;3.70;99.90;;;;;;5020544;28;20475;-79
2023/10/16 06:30:08;;;;;;;8.30;7.57;;;3.70;99.90;;;;;;5018794;28;20462;-79
2023/10/16 06:32:52;;;;;;;8.50;7.60;;;3.70;99.90;;;;;;5018448;28;20451;-79
2023/10/16 06:38:14;;;;;;;8.73;7.80;;;4.00;99.90;;;;;;5016173;28;20443;-78
2023/10/16 06:41:04;;;;;;;9.10;8.30;;;4.10;99.90;;;;;;5018755;28;20535;-78
2023/10/16 06:46:37;;;;;;;9.67;8.77;;;3.80;99.90;;;;;;5011668;28;20464;-79
2023/10/16 06:49:26;;;;;;;9.60;8.70;;;3.80;99.90;;;;;;5019026;28;20470;-79
2023/10/16 06:52:12;;;;;;;10.27;8.47;;;3.80;99.90;;;;;;5020389;28;20530;-80
2023/10/16 06:55:06;;;;;;;13.07;9.40;;;3.80;99.90;;;;;;5019405;28;20512;-80
2023/10/16 06:57:46;;;;;;;12.53;9.00;;;3.90;99.90;;;;;;5017895;28;20503;-78
2023/10/16 07:00:50;;;;;;;9.90;9.00;;;3.90;99.90;;;;;;5016447;28;20475;-82
2023/10/16 07:07:05;;;;;;;13.37;9.17;;;4.20;99.90;;;;;;5014335;28;20477;-82
2023/10/16 07:18:57;;;;;;;11.20;10.03;;;5.00;99.90;;;;;;5004367;28;20493;-79
2023/10/16 07:21:50;;;;;;;10.80;8.60;;;5.10;99.90;;;;;;5015687;28;20451;-78
2023/10/16 07:24:34;;;;;;;11.40;8.50;;;5.50;99.90;;;;;;5019401;28;20456;-81
2023/10/16 07:27:31;;;;;;;9.63;8.70;;;5.40;99.90;;;;;;5016398;28;20484;-79
2023/10/16 07:30:25;;;;;;;8.53;7.73;;;5.80;99.90;;;;;;5019073;28;20455;-81
2023/10/16 07:33:14;;;;;;;13.40;8.50;;;5.80;99.90;;;;;;5018749;28;20463;-82
2023/10/16 07:39:11;;;;;;;9.27;8.07;;;5.90;99.90;;;;;;5011916;28;20444;-81
2023/10/16 07:42:04;;;;;;;8.20;7.37;;;6.00;99.90;;;;;;5015328;28;20502;-82
2023/10/16 07:47:57;;;;;;;8.37;7.70;;;6.10;99.90;;;;;;5021739;28;20467;-78
2023/10/16 07:50:46;;;;;;;9.30;8.37;;;6.10;99.90;;;;;;5019373;28;20480;-81
2023/10/16 08:00:01;;;;;;;9.83;8.80;;;6.20;99.90;;;;;;5007922;28;20587;-83
2023/10/16 08:02:48;;;;;;;11.50;8.80;;;6.50;99.90;;;;;;5024698;28;20595;-83
2023/10/16 08:06:04;;;;;;;10.43;9.00;;;6.60;99.90;;;;;;5022615;28;20554;-82
2023/10/16 08:12:12;;;;;;;8.57;7.73;;;7.50;99.90;;;;;;5043259;28;20457;-82
2023/10/16 08:15:09;;;;;;;8.77;7.83;;;8.10;99.90;;;;;;5019767;28;20468;-81
2023/10/16 08:18:07;;;;;;;8.93;8.03;;;8.00;99.90;;;;;;5024910;28;20465;-79
2023/10/16 08:21:33;;;;;;;9.30;8.30;;;7.80;99.90;;;;;;5021080;28;20858;-79
2023/10/16 08:24:42;;;;;;;;;;;;;;;;;;;;;
2023/10/16 08:34:11;;;;;;;;;;;;;;;;;;;;;
2023/10/16 08:43:11;;;;;;;8.83;8.07;;;9.00;99.90;;;;;;5029751;28;20449;-79
2023/10/16 08:45:59;;;;;;;10.73;7.20;;;8.80;99.90;;;;;;5037055;28;20446;-80
2023/10/16 08:48:42;;;;;;;10.57;8.17;;;9.40;99.90;;;;;;5015177;28;20462;-78
2023/10/16 08:51:30;;;;;;;7.57;6.87;;;10.00;99.90;;;;;;5025377;28;20550;-81
2023/10/16 08:54:35;;;;;;;7.37;6.70;;;10.40;99.90;;;;;;5012683;28;20486;-82
2023/10/16 08:57:22;;;;;;;8.03;7.33;;;10.50;99.90;;;;;;5023278;28;20452;-80
2023/10/16 08:59:55;;;;;;;7.40;6.70;;;11.00;99.90;;;;;;5014624;28;20452;-82
2023/10/16 09:02:36;;;;;;;8.30;7.50;;;10.60;99.90;;;;;;5026300;28;20958;-82
2023/10/16 09:07:52;;;;;;;8.40;6.13;;;10.70;99.90;;;;;;5020007;28;20495;-82
2023/10/16 09:10:24;;;;;;;9.93;7.50;;;11.10;99.90;;;;;;5022495;28;20466;-83
2023/10/16 09:13:19;;;;;;;9.57;6.70;;;10.50;99.90;;;;;;5023084;28;20511;-82
2023/10/16 09:15:52;;;;;;;6.50;6.00;;;9.80;99.90;;;;;;5023554;28;20459;-84
2023/10/16 09:18:45;;;;;;;5.90;5.43;;;10.80;99.90;;;;;;5022132;28;20500;-80
2023/10/16 09:24:09;;;;;;;6.13;5.10;;;10.80;99.90;;;;;;5017234;28;20523;-81
2023/10/16 09:26:44;;;;;;;7.13;5.50;;;11.50;99.90;;;;;;5026745;28;20828;-81
2023/10/16 09:29:26;;;;;;;5.70;5.30;;;11.80;99.90;;;;;;5028869;28;20470;-82
2023/10/16 09:32:02;;;;;;;6.40;5.90;;;11.80;99.90;;;;;;5022678;28;20557;-80
2023/10/16 09:34:35;;;;;;;6.97;6.13;;;12.10;99.90;;;;;;5026043;28;20446;-82
2023/10/16 09:38:12;;;;;;;7.53;5.83;;;11.50;99.90;;;;;;5043637;28;20462;-81
2023/10/16 09:58:11;;;;;;;;;;;;;;;;;;;;;
2023/10/16 10:00:51;;;;;;;5.50;5.00;;;14.00;99.90;;;;;;4862924;29;20498;-84
2023/10/16 10:03:33;;;;;;;5.00;4.60;;;14.10;99.90;;;;;;5013157;28;20456;-82
2023/10/16 10:06:42;;;;;;;;;;;;;;;;;;;;;
2023/10/16 10:09:40;;;;;;;4.80;4.40;;;13.90;99.90;;;;;;5011317;28;20837;-83
2023/10/16 10:12:53;;;;;;;;;;;;;;;;;;;;;
2023/10/16 10:15:44;;;;;;;3.77;3.53;;;14.80;99.90;;;;;;4981817;28;20475;-81
2023/10/16 10:18:42;;;;;;;4.37;4.07;;;15.10;99.90;;;;;;5010377;28;20445;-83
2023/10/16 10:21:28;;;;;;;8.53;7.70;;;15.50;99.90;;;;;;5009733;28;20452;-80
2023/10/16 10:24:42;;;;;;;6.20;4.90;;;15.80;99.90;;;;;;5008503;28;20460;-82
2023/10/16 10:27:31;;;;;;;4.20;3.90;;;15.50;99.90;;;;;;5000509;28;20492;-83
2023/10/16 10:30:28;;;;;;;4.47;4.17;;;15.60;99.90;;;;;;5010624;28;20445;-83
2023/10/16 10:33:51;;;;;;;5.50;5.03;;;15.10;99.90;;;;;;4999679;28;20472;-82
2023/10/16 10:43:46;;;;;;;4.40;4.00;;;15.50;99.90;;;;;;4936520;29;20949;-83
2023/10/16 10:54:20;;;;;;;;;;;;;;;;;;;;;
2023/10/16 10:57:19;;;;;;;4.33;4.03;;;15.90;99.90;;;;;;4906729;29;20468;-83
2023/10/16 11:03:45;;;;;;;4.27;3.87;;;14.60;99.90;;;;;;4922251;28;20440;-84
2023/10/16 11:07:11;;;;;;;4.17;3.87;;;15.70;99.90;;;;;;5014841;28;20518;-84
2023/10/16 11:10:21;;;;;;;4.03;3.73;;;16.30;99.90;;;;;;4997515;28;20425;-80
2023/10/16 11:17:24;;;;;;;3.33;3.13;;;16.10;99.90;;;;;;4971652;28;20445;-81
2023/10/16 11:20:58;;;;;;;3.63;3.43;;;16.60;99.90;;;;;;4995774;28;20968;-81
2023/10/16 11:24:05;;;;;;;3.97;3.67;;;15.70;99.90;;;;;;5003189;28;20954;-83
2023/10/16 11:26:40;;;;;;;3.80;3.50;;;14.90;99.90;;;;;;4999232;28;20559;-79
2023/10/16 11:29:20;;;;;;;3.47;3.20;;;16.00;99.90;;;;;;4998204;28;20539;-80
2023/10/16 11:32:14;;;;;;;5.60;3.40;;;16.60;99.90;;;;;;5000413;28;20476;-81
2023/10/16 11:35:00;;;;;;;1.97;1.80;;;16.40;99.90;;;;;;5000786;28;20511;-81
2023/10/16 11:37:46;;;;;;;;;;;;;;;;;;;;;
2023/10/16 11:40:32;;;;;;;2.30;1.53;;;17.10;99.90;;;;;;4999297;28;20463;-83
2023/10/16 11:43:11;;;;;;;1.27;1.20;;;17.30;99.90;;;;;;4998020;28;20432;-81
2023/10/16 11:45:53;;;;;;;1.60;1.50;;;17.00;99.80;;;;;;4997512;28;20460;-83
2023/10/16 11:48:35;;;;;;;2.40;1.57;;;17.50;99.90;;;;;;4998493;28;20452;-83
2023/10/16 11:51:38;;;;;;;3.50;1.60;;;17.60;99.80;;;;;;4999249;28;20448;-82
2023/10/16 11:54:30;;;;;;;1.90;1.40;;;18.00;97.80;;;;;;5000522;28;20456;-81
2023/10/16 11:57:13;;;;;;;2.30;1.57;;;18.10;97.30;;;;;;5000372;28;20476;-82
2023/10/16 11:59:51;;;;;;;3.00;1.40;;;18.50;98.20;;;;;;4999030;28;20452;-83
2023/10/16 12:02:29;;;;;;;1.80;1.70;;;18.40;96.10;;;;;;4999295;28;20511;-83
2023/10/16 12:05:12;;;;;;;2.33;1.97;;;18.40;95.60;;;;;;5018111;28;20841;-81
2023/10/16 12:07:48;;;;;;;2.33;2.23;;;18.00;96.70;;;;;;5017844;28;20834;-82
2023/10/16 12:10:41;;;;;;;2.03;1.93;;;17.80;97.00;;;;;;5018519;28;20454;-81
2023/10/16 12:13:25;;;;;;;;;;;;;;;;;;;;;
2023/10/16 12:16:05;;;;;;;2.00;1.80;;;18.50;96.50;;;;;;5016982;28;20542;-84
2023/10/16 12:19:05;;;;;;;1.93;1.70;;;17.00;96.20;;;;;;5016196;28;20454;-82
2023/10/16 12:21:34;;;;;;;4.10;1.70;;;17.90;96.80;;;;;;5019233;28;20440;-82
2023/10/16 12:24:23;;;;;;;3.07;2.43;;;18.40;96.00;;;;;;5019969;28;20517;-83
2023/10/16 12:26:55;;;;;;;2.20;2.10;;;18.30;96.40;;;;;;5022295;28;20447;-82
2023/10/16 12:29:34;;;;;;;2.10;2.00;;;18.70;95.70;;;;;;5019697;28;20440;-81
2023/10/16 12:32:24;;;;;;;3.20;1.77;;;18.40;95.90;;;;;;5019673;28;21003;-82
2023/10/16 12:35:00;;;;;;;2.20;2.00;;;18.50;95.60;;;;;;5021397;28;20451;-82
2023/10/16 12:37:38;;;;;;;2.00;1.63;;;18.50;95.30;;;;;;5020449;28;20471;-84
2023/10/16 12:40:27;;;;;;;2.83;1.90;;;18.70;94.80;;;;;;5017757;28;20991;-83
2023/10/16 12:43:00;;;;;;;1.60;1.50;;;18.60;94.10;;;;;;5017940;28;20455;-83
2023/10/16 12:45:32;;;;;;;2.20;1.60;;;18.50;93.90;;;;;;5017534;28;20456;-82
2023/10/16 12:48:04;;;;;;;1.60;1.60;;;18.60;94.00;;;;;;5016351;28;20601;-82
2023/10/16 12:50:32;;;;;;;1.80;1.70;;;18.50;93.20;;;;;;5018183;28;20451;-81
2023/10/16 12:53:03;;;;;;;1.73;1.63;;;18.50;93.00;;;;;;5017313;28;20995;-80
2023/10/16 12:55:33;;;;;;;2.10;1.90;;;17.40;93.50;;;;;;5017834;28;20443;-80
2023/10/16 12:58:05;;;;;;;1.87;1.70;;;17.50;94.80;;;;;;5022010;28;20490;-82
2023/10/16 13:00:46;;;;;;;2.60;1.83;;;17.90;94.40;;;;;;5023177;28;20451;-80
2023/10/16 13:03:15;;;;;;;1.97;1.70;;;18.10;93.90;;;;;;5024611;28;20447;-80
2023/10/16 13:08:39;;;;;;;1.90;1.80;;;18.20;93.60;;;;;;5004891;28;20484;-81
2023/10/16 13:11:11;;;;;;;2.67;1.70;;;17.30;93.40;;;;;;5021089;28;20454;-79
2023/10/16 13:14:17;;;;;;;2.70;1.80;;;17.40;92.50;;;;;;5025166;28;20861;-82
2023/10/16 13:16:53;;;;;;;3.17;1.73;;;18.00;92.30;;;;;;5020596;28;20463;-81
2023/10/16 13:19:38;;;;;;;2.00;1.90;;;18.00;91.50;;;;;;5018933;28;20455;-81
2023/10/16 13:22:17;;;;;;;2.13;2.00;;;17.50;92.30;;;;;;5017673;28;20561;-80
2023/10/16 13:24:59;;;;;;;2.70;1.67;;;17.70;92.10;;;;;;5017882;28;20456;-80
2023/10/16 13:27:31;;;;;;;1.70;1.60;;;18.00;90.60;;;;;;5018223;28;20490;-79
2023/10/16 13:30:05;;;;;;;1.70;1.60;;;18.00;90.10;;;;;;5017727;28;20519;-80
2023/10/16 13:32:41;;;;;;;2.80;1.80;;;18.30;90.30;;;;;;5018987;28;20482;-82
2023/10/16 13:35:21;;;;;;;1.80;1.70;;;18.50;90.30;;;;;;5019662;28;20475;-81
2023/10/16 13:37:58;;;;;;;3.83;1.90;;;18.60;90.10;;;;;;5019800;28;20468;-80
2023/10/16 13:40:38;;;;;;;1.67;1.53;;;18.50;90.00;;;;;;5020521;28;20447;-82
2023/10/16 13:43:10;;;;;;;1.80;1.70;;;18.10;89.40;;;;;;5019403;28;20478;-82
2023/10/16 13:45:52;;;;;;;2.03;1.93;;;18.10;90.00;;;;;;5019762;28;20452;-81
2023/10/16 13:48:23;;;;;;;2.17;1.97;;;18.30;88.70;;;;;;5027608;28;20459;-82
2023/10/16 13:50:57;;;;;;;1.37;1.37;;;17.80;89.60;;;;;;5028255;28;20454;-81
2023/10/16 13:53:34;;;;;;;1.83;1.67;;;18.20;89.10;;;;;;5023323;28;20508;-83
2023/10/16 13:56:29;;;;;;;3.53;2.10;;;18.20;89.50;;;;;;5025825;28;20463;-83
2023/10/16 13:59:03;;;;;;;2.00;1.90;;;17.80;89.90;;;;;;5028119;28;20463;-82
2023/10/16 14:01:45;;;;;;;1.60;1.50;;;18.00;89.90;;;;;;5027536;28;20518;-82
2023/10/16 14:04:21;;;;;;;2.47;2.37;;;17.90;90.30;;;;;;5007321;28;20456;-82
2023/10/16 14:07:19;;;;;;;2.07;1.97;;;17.70;90.60;;;;;;5002713;28;20587;-83
2023/10/16 14:10:21;;;;;;;1.80;1.70;;;17.70;91.20;;;;;;5002536;28;20467;-82
2023/10/16 14:13:11;;;;;;;2.10;2.00;;;17.70;91.10;;;;;;5003258;28;20472;-80
2023/10/16 14:15:41;;;;;;;2.30;2.20;;;16.40;91.90;;;;;;5003914;28;20448;-82
2023/10/16 14:18:24;;;;;;;2.50;2.30;;;16.10;92.40;;;;;;5005029;28;20448;-83
2023/10/16 14:21:12;;;;;;;2.10;2.00;;;15.60;93.30;;;;;;5005574;28;20459;-83
2023/10/16 14:24:05;;;;;;;2.00;1.90;;;15.80;92.80;;;;;;5005050;28;20448;-80
2023/10/16 14:26:39;;;;;;;6.47;5.87;;;15.90;93.10;;;;;;5000171;28;20555;-80
2023/10/16 14:29:13;;;;;;;1.80;1.70;;;16.30;91.60;;;;;;5000299;28;20456;-84
2023/10/16 14:31:51;;;;;;;1.93;1.83;;;16.50;91.40;;;;;;5000445;28;20444;-84
2023/10/16 14:34:22;;;;;;;1.67;1.57;;;16.40;91.30;;;;;;5001575;28;20456;-82
2023/10/16 14:36:58;;;;;;;1.83;1.73;;;16.20;91.20;;;;;;5003825;28;20483;-79
2023/10/16 14:39:29;;;;;;;2.00;1.90;;;15.80;91.30;;;;;;5003318;28;20941;-82
2023/10/16 14:42:01;;;;;;;2.00;1.57;;;15.60;91.80;;;;;;5003802;28;20437;-82
2023/10/16 14:44:35;;;;;;;2.90;2.03;;;15.60;92.10;;;;;;5003644;28;20452;-82
2023/10/16 14:47:09;;;;;;;2.53;2.17;;;15.80;92.40;;;;;;5004237;28;20468;-82
2023/10/16 14:49:36;;;;;;;2.30;2.10;;;15.20;92.50;;;;;;5004976;28;20451;-84
2023/10/16 14:52:06;;;;;;;2.33;2.13;;;15.20;93.00;;;;;;5004625;28;20468;-84
2023/10/16 14:54:36;;;;;;;2.10;1.90;;;14.90;92.90;;;;;;5005043;28;20527;-80
2023/10/16 14:57:04;;;;;;;4.23;2.53;;;15.00;93.00;;;;;;5005333;28;20876;-80
2023/10/16 14:59:32;;;;;;;2.47;1.80;;;14.70;92.60;;;;;;5006738;28;20455;-83
2023/10/16 15:02:13;;;;;;;2.10;2.00;;;14.70;92.90;;;;;;5003866;28;20499;-81
2023/10/16 15:05:19;;;;;;;3.10;2.10;;;14.90;93.00;;;;;;4980639;28;20508;-79
2023/10/16 15:08:15;;;;;;;2.03;1.90;;;14.90;93.40;;;;;;4980248;28;20564;-83
2023/10/16 15:14:03;;;;;;;1.97;1.87;;;14.60;93.60;;;;;;4978823;28;20899;-81
2023/10/16 15:16:42;;;;;;;1.63;1.53;;;14.50;94.20;;;;;;4982870;28;20477;-83
2023/10/16 15:19:13;;;;;;;1.73;1.63;;;14.30;94.70;;;;;;4981888;28;20516;-82
2023/10/16 15:21:43;;;;;;;3.03;1.70;;;14.20;95.00;;;;;;4981738;28;20953;-82
2023/10/16 15:24:15;;;;;;;1.90;1.80;;;14.30;95.20;;;;;;4981692;28;20444;-84
2023/10/16 15:26:50;;;;;;;1.87;1.77;;;14.30;94.80;;;;;;4981856;28;20954;-85
2023/10/16 15:29:50;;;;;;;1.90;1.80;;;14.20;95.10;;;;;;4980780;28;20576;-84
2023/10/16 15:35:48;;;;;;;1.80;1.70;;;13.70;95.40;;;;;;4962569;28;20450;-83
2023/10/16 15:41:44;;;;;;;;;;;;;;;;;;;;;
2023/10/16 15:44:22;;;;;;;1.50;1.40;;;13.30;96.30;;;;;;4948078;28;20449;-83
2023/10/16 15:47:03;;;;;;;2.20;1.30;;;13.20;96.70;;;;;;4979144;28;20476;-85
2023/10/16 15:49:56;;;;;;;1.57;1.47;;;13.20;96.70;;;;;;4979078;28;20997;-84
2023/10/16 15:52:39;;;;;;;1.70;1.60;;;13.20;96.90;;;;;;4978782;28;20457;-82
2023/10/16 15:55:17;;;;;;;1.40;1.40;;;13.20;97.00;;;;;;4977878;28;20449;-83
2023/10/16 15:58:15;;;;;;;1.50;1.40;;;13.10;97.10;;;;;;4979471;28;20532;-85
2023/10/16 16:00:57;;;;;;;1.40;1.30;;;13.30;97.20;;;;;;4979456;28;20433;-83
2023/10/16 16:03:37;;;;;;;2.70;1.60;;;12.80;96.90;;;;;;4998654;28;20439;-80
2023/10/16 16:06:15;;;;;;;2.20;1.50;;;12.70;96.60;;;;;;5017868;28;20476;-81
2023/10/16 16:12:19;;;;;;;1.10;1.00;;;12.40;97.20;;;;;;4957389;28;20478;-83
2023/10/16 16:15:15;;;;;;;;;;;;;;;;;;;;;
2023/10/16 16:21:40;;;;;;;;;;;;;;;;;;;;;
2023/10/16 16:24:24;;;;;;;1.73;1.63;;;12.40;98.60;;;;;;5017951;28;20527;-81
2023/10/16 16:32:42;;;;;;;2.37;1.70;;;12.30;99.90;;;;;;5022439;28;20443;-83
2023/10/16 16:35:32;;;;;;;2.10;1.73;;;12.10;99.90;;;;;;5025458;28;20448;-83
2023/10/16 16:38:12;;;;;;;1.73;1.60;;;11.90;99.90;;;;;;5027716;28;20475;-84
2023/10/16 16:40:52;;;;;;;2.90;2.40;;;11.90;99.90;;;;;;5026449;28;20432;-83
2023/10/16 16:43:25;;;;;;;4.17;2.17;;;11.90;99.90;;;;;;5025311;28;20781;-83
2023/10/16 16:55:09;;;;;;;2.83;1.83;;;11.60;99.90;;;;;;5018048;28;20486;-81
2023/10/16 16:58:19;;;;;;;2.20;1.97;;;11.60;99.90;;;;;;5029543;28;20451;-80
2023/10/16 17:00:54;;;;;;;2.67;2.47;;;11.40;99.90;;;;;;5030228;28;21071;-80
2023/10/16 17:03:29;;;;;;;1.90;1.80;;;11.30;99.90;;;;;;5020979;28;20436;-81
2023/10/16 17:06:07;;;;;;;2.87;2.27;;;11.20;99.90;;;;;;5010386;28;20471;-81
2023/10/16 17:08:39;;;;;;;2.43;2.23;;;11.20;99.90;;;;;;5008818;28;20451;-82
2023/10/16 17:11:19;;;;;;;2.03;1.90;;;11.10;99.90;;;;;;5007037;28;20432;-82
2023/10/16 17:13:54;;;;;;;2.73;2.53;;;11.20;99.90;;;;;;5007037;28;20476;-82
2023/10/16 17:19:38;;;;;;;1.80;1.70;;;11.20;99.90;;;;;;5008151;28;20744;-84
2023/10/16 17:22:20;;;;;;;2.47;2.33;;;11.10;99.90;;;;;;5010510;28;20479;-79
2023/10/16 17:25:03;;;;;;;3.40;2.23;;;11.10;99.90;;;;;;5009492;28;20444;-82
2023/10/16 17:27:45;;;;;;;3.10;2.87;;;11.10;99.90;;;;;;5007069;28;20494;-82
2023/10/16 17:30:30;;;;;;;2.30;2.10;;;11.10;99.90;;;;;;5008481;28;20452;-81
2023/10/16 17:33:20;;;;;;;7.77;2.70;;;11.00;99.90;;;;;;5009744;28;20480;-82
2023/10/16 17:42:48;;;;;;;2.80;2.60;;;10.80;99.90;;;;;;5008769;28;20434;-83
2023/10/16 17:45:27;;;;;;;2.87;2.67;;;10.70;99.90;;;;;;5009971;28;20429;-81
2023/10/16 17:47:55;;;;;;;3.70;3.30;;;10.70;99.90;;;;;;5009136;28;20472;-81
2023/10/16 17:53:14;;;;;;;3.53;2.70;;;10.40;99.90;;;;;;5006039;28;20472;-80
2023/10/16 17:55:54;;;;;;;3.43;3.10;;;10.30;99.90;;;;;;5006527;28;20481;-83
2023/10/16 17:58:52;;;;;;;3.40;3.10;;;10.30;99.90;;;;;;5008998;28;20459;-83
2023/10/16 18:01:31;;;;;;;3.70;3.40;;;10.50;99.90;;;;;;5003399;28;20522;-80
2023/10/16 18:04:22;;;;;;;3.60;3.30;;;10.10;99.90;;;;;;5004808;28;20444;-78
2023/10/16 18:07:18;;;;;;;3.17;2.90;;;10.40;99.90;;;;;;5005068;28;20495;-80
2023/10/16 18:10:05;;;;;;;3.70;3.40;;;10.40;99.90;;;;;;5000321;28;20433;-84
2023/10/16 18:12:47;;;;;;;5.73;3.67;;;10.30;99.90;;;;;;5003724;28;20513;-81
2023/10/16 18:22:14;;;;;;;3.20;3.00;;;10.20;99.90;;;;;;4948158;29;20434;-84
2023/10/16 18:24:59;;;;;;;3.60;3.00;;;10.40;99.90;;;;;;4964054;29;20450;-83
2023/10/16 18:27:28;;;;;;;3.53;3.20;;;10.20;99.90;;;;;;4961350;28;20470;-80
2023/10/16 18:40:20;;;;;;;3.30;3.10;;;10.10;99.90;;;;;;5009344;28;20455;-79
2023/10/16 18:43:12;;;;;;;4.33;2.70;;;9.80;99.90;;;;;;5008552;28;20448;-84
2023/10/16 18:45:59;;;;;;;4.33;3.27;;;10.10;99.90;;;;;;5010303;28;20456;-82
2023/10/16 18:52:25;;;;;;;3.67;2.93;;;9.90;99.90;;;;;;5009847;28;20519;-79
2023/10/16 18:58:27;;;;;;;3.67;3.00;;;9.80;99.90;;;;;;5009472;28;20452;-79
2023/10/16 19:01:24;;;;;;;2.97;2.77;;;9.70;99.90;;;;;;5009235;28;20475;-78
2023/10/16 19:07:04;;;;;;;3.20;2.90;;;9.70;99.90;;;;;;5027538;28;20456;-80
2023/10/16 19:09:59;;;;;;;3.10;2.80;;;9.70;99.90;;;;;;5029983;28;20439;-81
2023/10/16 19:12:27;;;;;;;2.90;2.70;;;9.60;99.90;;;;;;5027670;28;20439;-80
2023/10/16 19:15:01;;;;;;;3.27;2.97;;;9.80;99.90;;;;;;5026116;28;20778;-80
2023/10/16 19:17:46;;;;;;;6.00;3.50;;;9.60;99.90;;;;;;5024803;28;20528;-83
2023/10/16 19:20:27;;;;;;;3.73;3.40;;;9.50;99.90;;;;;;5009574;28;20534;-83
2023/10/16 19:22:57;;;;;;;3.53;3.23;;;9.50;99.90;;;;;;5025485;28;20447;-81
2023/10/16 19:29:22;;;;;;;5.27;3.63;;;9.40;99.90;;;;;;4892226;29;20452;-83
2023/10/16 19:32:16;;;;;;;10.30;9.20;;;9.40;99.90;;;;;;4924923;29;20456;-80
2023/10/16 19:34:54;;;;;;;6.53;5.63;;;9.00;99.90;;;;;;4923468;29;20482;-82
2023/10/16 19:37:51;;;;;;;4.63;4.10;;;9.30;99.90;;;;;;5004500;28;20687;-81
2023/10/16 19:40:47;;;;;;;;;;;;;;;;;;;;;
2023/10/16 19:46:30;;;;;;;4.83;4.43;;;9.10;99.90;;;;;;5024439;28;20456;-82
2023/10/16 19:49:30;;;;;;;;;;;;;;;;;;;;;
2023/10/16 19:55:30;;;;;;;4.40;4.00;;;8.80;99.90;;;;;;4980558;28;20494;-82
2023/10/16 19:58:16;;;;;;;4.57;3.33;;;9.10;99.90;;;;;;5023004;28;20541;-80
2023/10/16 20:01:05;;;;;;;5.00;4.60;;;8.80;99.90;;;;;;5022462;28;20853;-81
2023/10/16 20:04:42;;;;;;;4.00;3.70;;;9.20;99.90;;;;;;5013377;28;20941;-81
2023/10/16 20:07:24;;;;;;;4.07;3.37;;;8.60;99.90;;;;;;4929610;28;20480;-80